sensor_id;sensor_type;location;lat;lon;timestamp;pressure;altitude;pressure_sealevel;temperature;humidity
23016;BME280;11674;52.428;13.584;2023-02-04T00:04:37;101895.91;;;5.09;84.05
23016;BME280;11674;52.428;13.584;2023-02-04T00:09:44;101923.94;;;5.18;84.03
23016;BME280;11674;52.428;13.584;2023-02-04T00:14:51;101927.47;;;5.25;83.97
23016;BME280;11674;52.428;13.584;2023-02-04T00:19:58;101944.50;;;5.33;84.06
23016;BME280;11674;52.428;13.584;2023-02-04T00:25:06;101970.72;;;5.36;83.93
23016;BME280;11674;52.428;13.584;2023-02-04T00:30:13;101980.44;;;5.38;83.78
23016;BME280;11674;52.428;13.584;2023-02-04T00:35:20;102006.03;;;5.39;83.82
23016;BME280;11674;52.428;13.584;2023-02-04T00:40:26;102028.66;;;5.41;83.55
23016;BME280;11674;52.428;13.584;2023-02-04T00:45:33;102054.75;;;5.32;83.45
23016;BME280;11674;52.428;13.584;2023-02-04T00:50:40;102075.31;;;5.29;83.38
23016;BME280;11674;52.428;13.584;2023-02-04T00:55:47;102094.56;;;5.29;83.35
23016;BME280;11674;52.428;13.584;2023-02-04T01:00:55;102124.00;;;5.29;83.43
23016;BME280;11674;52.428;13.584;2023-02-04T01:06:01;102147.06;;;5.28;83.13
23016;BME280;11674;52.428;13.584;2023-02-04T01:11:08;102176.50;;;5.21;82.89
23016;BME280;11674;52.428;13.584;2023-02-04T01:16:15;102203.19;;;5.14;82.82
23016;BME280;11674;52.428;13.584;2023-02-04T01:21:22;102219.72;;;5.07;82.85
23016;BME280;11674;52.428;13.584;2023-02-04T01:26:29;102232.66;;;5.00;82.83
23016;BME280;11674;52.428;13.584;2023-02-04T01:31:36;102242.19;;;4.98;82.93
23016;BME280;11674;52.428;13.584;2023-02-04T01:36:43;102267.56;;;5.00;82.83
23016;BME280;11674;52.428;13.584;2023-02-04T01:41:51;102285.31;;;4.97;82.87
23016;BME280;11674;52.428;13.584;2023-02-04T01:46:59;102291.28;;;4.94;82.82
23016;BME280;11674;52.428;13.584;2023-02-04T01:52:08;102304.63;;;4.91;82.85
23016;BME280;11674;52.428;13.584;2023-02-04T01:57:16;102313.69;;;4.85;82.63
23016;BME280;11674;52.428;13.584;2023-02-04T02:02:42;102329.38;;;4.78;82.71
23016;BME280;11674;52.428;13.584;2023-02-04T02:07:52;102350.06;;;4.74;82.83
23016;BME280;11674;52.428;13.584;2023-02-04T02:13:00;102375.88;;;4.66;82.73
23016;BME280;11674;52.428;13.584;2023-02-04T02:18:11;102394.06;;;4.61;82.54
23016;BME280;11674;52.428;13.584;2023-02-04T02:28:52;102426.19;;;4.54;82.69
23016;BME280;11674;52.428;13.584;2023-02-04T02:33:59;102436.34;;;4.53;82.90
23016;BME280;11674;52.428;13.584;2023-02-04T02:39:07;102446.91;;;4.56;83.07
23016;BME280;11674;52.428;13.584;2023-02-04T02:44:15;102462.75;;;4.61;83.09
23016;BME280;11674;52.428;13.584;2023-02-04T02:49:22;102473.34;;;4.64;83.13
23016;BME280;11674;52.428;13.584;2023-02-04T02:54:30;102483.69;;;4.62;82.88
23016;BME280;11674;52.428;13.584;2023-02-04T02:59:39;102506.94;;;4.59;82.99
23016;BME280;11674;52.428;13.584;2023-02-04T03:04:49;102520.03;;;4.57;82.95
23016;BME280;11674;52.428;13.584;2023-02-04T03:10:01;102529.13;;;4.58;83.13
23016;BME280;11674;52.428;13.584;2023-02-04T03:15:08;102541.38;;;4.55;83.17
23016;BME280;11674;52.428;13.584;2023-02-04T03:20:15;102560.16;;;4.52;82.96
23016;BME280;11674;52.428;13.584;2023-02-04T03:25:23;102573.25;;;4.43;82.93
23016;BME280;11674;52.428;13.584;2023-02-04T03:30:31;102584.63;;;4.34;82.92
23016;BME280;11674;52.428;13.584;2023-02-04T03:35:38;102595.13;;;4.24;82.99
23016;BME280;11674;52.428;13.584;2023-02-04T03:40:46;102620.22;;;4.14;82.89
23016;BME280;11674;52.428;13.584;2023-02-04T03:45:52;102637.91;;;4.05;82.83
23016;BME280;11674;52.428;13.584;2023-02-04T03:50:59;102648.22;;;3.97;82.98
23016;BME280;11674;52.428;13.584;2023-02-04T03:56:06;102669.47;;;3.88;82.83
23016;BME280;11674;52.428;13.584;2023-02-04T04:01:13;102680.59;;;3.80;82.99
23016;BME280;11674;52.428;13.584;2023-02-04T04:06:20;102701.25;;;3.76;83.10
23016;BME280;11674;52.428;13.584;2023-02-04T04:11:27;102713.00;;;3.70;82.94
23016;BME280;11674;52.428;13.584;2023-02-04T04:16:34;102722.50;;;3.68;83.00
23016;BME280;11674;52.428;13.584;2023-02-04T04:21:41;102733.66;;;3.66;83.21
23016;BME280;11674;52.428;13.584;2023-02-04T04:26:48;102746.16;;;3.69;83.37
23016;BME280;11674;52.428;13.584;2023-02-04T04:31:55;102767.03;;;3.70;83.42
23016;BME280;11674;52.428;13.584;2023-02-04T04:37:02;102778.03;;;3.70;83.52
23016;BME280;11674;52.428;13.584;2023-02-04T04:42:09;102789.38;;;3.67;83.28
23016;BME280;11674;52.428;13.584;2023-02-04T04:47:16;102803.31;;;3.65;83.38
23016;BME280;11674;52.428;13.584;2023-02-04T04:52:23;102813.81;;;3.62;83.33
23016;BME280;11674;52.428;13.584;2023-02-04T04:57:31;102825.19;;;3.59;83.37
23016;BME280;11674;52.428;13.584;2023-02-04T05:02:37;102853.44;;;3.59;83.43
23016;BME280;11674;52.428;13.584;2023-02-04T05:07:44;102867.06;;;3.67;83.56
23016;BME280;11674;52.428;13.584;2023-02-04T05:12:51;102873.66;;;3.73;83.44
23016;BME280;11674;52.428;13.584;2023-02-04T05:17:58;102886.38;;;3.74;83.58
23016;BME280;11674;52.428;13.584;2023-02-04T05:23:05;102883.13;;;3.70;83.36
23016;BME280;11674;52.428;13.584;2023-02-04T05:28:12;102893.84;;;3.65;83.33
23016;BME280;11674;52.428;13.584;2023-02-04T05:33:19;102903.50;;;3.61;83.31
23016;BME280;11674;52.428;13.584;2023-02-04T05:38:26;102923.09;;;3.58;83.37
23016;BME280;11674;52.428;13.584;2023-02-04T05:43:33;102934.06;;;3.58;83.45
23016;BME280;11674;52.428;13.584;2023-02-04T05:48:40;102939.53;;;3.58;83.50
23016;BME280;11674;52.428;13.584;2023-02-04T05:53:47;102953.44;;;3.57;83.52
23016;BME280;11674;52.428;13.584;2023-02-04T05:58:55;102967.56;;;3.54;83.20
23016;BME280;11674;52.428;13.584;2023-02-04T06:04:01;102966.63;;;3.47;83.15
23016;BME280;11674;52.428;13.584;2023-02-04T06:09:09;102987.91;;;3.45;83.23
23016;BME280;11674;52.428;13.584;2023-02-04T06:14:22;102999.25;;;3.42;83.42
23016;BME280;11674;52.428;13.584;2023-02-04T06:19:29;103008.25;;;3.36;83.32
23016;BME280;11674;52.428;13.584;2023-02-04T06:24:37;103010.50;;;3.32;83.31
23016;BME280;11674;52.428;13.584;2023-02-04T06:29:43;103029.22;;;3.29;83.27
23016;BME280;11674;52.428;13.584;2023-02-04T06:34:50;103042.81;;;3.22;83.18
23016;BME280;11674;52.428;13.584;2023-02-04T06:39:57;103053.31;;;3.19;83.23
23016;BME280;11674;52.428;13.584;2023-02-04T06:45:05;103060.00;;;3.16;83.31
23016;BME280;11674;52.428;13.584;2023-02-04T06:50:12;103069.44;;;3.14;83.29
23016;BME280;11674;52.428;13.584;2023-02-04T06:55:18;103070.88;;;3.10;83.25
23016;BME280;11674;52.428;13.584;2023-02-04T07:00:25;103075.69;;;3.08;83.20
23016;BME280;11674;52.428;13.584;2023-02-04T07:05:32;103075.38;;;3.03;83.14
23016;BME280;11674;52.428;13.584;2023-02-04T07:10:39;103080.19;;;3.01;83.38
23016;BME280;11674;52.428;13.584;2023-02-04T07:15:46;103092.03;;;3.01;83.45
23016;BME280;11674;52.428;13.584;2023-02-04T07:20:53;103083.59;;;3.03;83.53
23016;BME280;11674;52.428;13.584;2023-02-04T07:26:00;103092.31;;;3.06;83.39
23016;BME280;11674;52.428;13.584;2023-02-04T07:31:07;103080.97;;;3.09;83.57
23016;BME280;11674;52.428;13.584;2023-02-04T07:36:14;103097.06;;;3.12;83.37
23016;BME280;11674;52.428;13.584;2023-02-04T07:41:22;103124.59;;;3.19;83.50
23016;BME280;11674;52.428;13.584;2023-02-04T07:46:29;103131.59;;;3.21;83.62
23016;BME280;11674;52.428;13.584;2023-02-04T07:51:36;103144.94;;;3.24;83.71
23016;BME280;11674;52.428;13.584;2023-02-04T07:56:43;103153.31;;;3.31;83.85
23016;BME280;11674;52.428;13.584;2023-02-04T08:01:50;103170.72;;;3.38;83.76
23016;BME280;11674;52.428;13.584;2023-02-04T08:06:57;103187.31;;;3.44;83.82
23016;BME280;11674;52.428;13.584;2023-02-04T08:12:04;103195.63;;;3.51;83.75
23016;BME280;11674;52.428;13.584;2023-02-04T08:17:10;103203.81;;;3.59;83.87
23016;BME280;11674;52.428;13.584;2023-02-04T08:22:18;103197.00;;;3.69;84.13
23016;BME280;11674;52.428;13.584;2023-02-04T08:27:25;103206.22;;;3.76;84.07
23016;BME280;11674;52.428;13.584;2023-02-04T08:32:32;103211.81;;;3.83;84.24
23016;BME280;11674;52.428;13.584;2023-02-04T08:37:39;103217.06;;;3.92;84.17
23016;BME280;11674;52.428;13.584;2023-02-04T08:42:46;103222.91;;;4.04;84.20
23016;BME280;11674;52.428;13.584;2023-02-04T08:47:53;103216.31;;;4.13;84.28
23016;BME280;11674;52.428;13.584;2023-02-04T08:53:00;103225.31;;;4.21;84.33
23016;BME280;11674;52.428;13.584;2023-02-04T08:58:07;103233.47;;;4.29;84.26
23016;BME280;11674;52.428;13.584;2023-02-04T09:03:14;103235.25;;;4.37;84.36
23016;BME280;11674;52.428;13.584;2023-02-04T09:08:21;103255.34;;;4.52;84.50
23016;BME280;11674;52.428;13.584;2023-02-04T09:13:28;103251.13;;;4.64;84.54
23016;BME280;11674;52.428;13.584;2023-02-04T09:18:35;103264.56;;;4.73;84.27
23016;BME280;11674;52.428;13.584;2023-02-04T09:23:42;103262.28;;;4.77;84.59
23016;BME280;11674;52.428;13.584;2023-02-04T09:28:49;103265.00;;;4.91;84.51
23016;BME280;11674;52.428;13.584;2023-02-04T09:33:56;103286.69;;;5.01;84.41
23016;BME280;11674;52.428;13.584;2023-02-04T09:39:04;103292.59;;;4.98;84.21
23016;BME280;11674;52.428;13.584;2023-02-04T09:44:16;103301.13;;;5.03;84.40
23016;BME280;11674;52.428;13.584;2023-02-04T09:49:26;103308.25;;;5.12;84.61
23016;BME280;11674;52.428;13.584;2023-02-04T09:54:34;103310.41;;;5.16;84.48
23016;BME280;11674;52.428;13.584;2023-02-04T09:59:42;103303.34;;;5.28;84.59
23016;BME280;11674;52.428;13.584;2023-02-04T10:04:50;103311.50;;;5.36;84.47
23016;BME280;11674;52.428;13.584;2023-02-04T10:09:58;103311.91;;;5.54;84.62
23016;BME280;11674;52.428;13.584;2023-02-04T10:15:05;103315.03;;;5.66;84.57
23016;BME280;11674;52.428;13.584;2023-02-04T10:20:18;103322.50;;;5.72;84.35
23016;BME280;11674;52.428;13.584;2023-02-04T10:25:25;103328.84;;;5.87;84.84
23016;BME280;11674;52.428;13.584;2023-02-04T10:30:40;103329.81;;;6.00;84.21
23016;BME280;11674;52.428;13.584;2023-02-04T10:35:49;103328.84;;;5.87;83.85
23016;BME280;11674;52.428;13.584;2023-02-04T10:41:00;103332.53;;;5.79;83.91
23016;BME280;11674;52.428;13.584;2023-02-04T10:46:08;103324.97;;;5.81;84.30
23016;BME280;11674;52.428;13.584;2023-02-04T10:51:15;103328.97;;;6.00;84.69
23016;BME280;11674;52.428;13.584;2023-02-04T10:56:22;103337.41;;;5.98;84.03
23016;BME280;11674;52.428;13.584;2023-02-04T11:01:29;103347.06;;;5.88;83.62
23016;BME280;11674;52.428;13.584;2023-02-04T11:06:37;103342.34;;;5.82;83.74
23016;BME280;11674;52.428;13.584;2023-02-04T11:11:45;103346.31;;;5.79;83.54
23016;BME280;11674;52.428;13.584;2023-02-04T11:16:53;103354.38;;;5.81;83.74
23016;BME280;11674;52.428;13.584;2023-02-04T11:23:12;103347.47;;;5.70;83.58
23016;BME280;11674;52.428;13.584;2023-02-04T11:27:49;103366.75;;;5.70;83.93
23016;BME280;11674;52.428;13.584;2023-02-04T11:33:04;103369.03;;;5.81;84.15
23016;BME280;11674;52.428;13.584;2023-02-04T11:38:23;103379.44;;;5.86;83.91
23016;BME280;11674;52.428;13.584;2023-02-04T11:43:34;103371.59;;;5.83;83.65
23016;BME280;11674;52.428;13.584;2023-02-04T11:48:41;103381.81;;;5.89;83.87
23016;BME280;11674;52.428;13.584;2023-02-04T11:53:52;103388.91;;;5.98;84.26
23016;BME280;11674;52.428;13.584;2023-02-04T11:58:59;103386.28;;;6.11;84.23
23016;BME280;11674;52.428;13.584;2023-02-04T12:04:18;103384.84;;;6.15;84.02
23016;BME280;11674;52.428;13.584;2023-02-04T12:09:28;103377.84;;;6.12;83.85
23016;BME280;11674;52.428;13.584;2023-02-04T12:14:37;103380.97;;;6.09;83.83
23016;BME280;11674;52.428;13.584;2023-02-04T12:19:45;103376.59;;;6.15;83.80
23016;BME280;11674;52.428;13.584;2023-02-04T12:24:52;103377.41;;;6.15;83.65
23016;BME280;11674;52.428;13.584;2023-02-04T12:29:59;103383.59;;;6.17;83.92
23016;BME280;11674;52.428;13.584;2023-02-04T12:35:06;103412.00;;;6.18;83.44
23016;BME280;11674;52.428;13.584;2023-02-04T12:40:14;103406.38;;;6.05;83.28
23016;BME280;11674;52.428;13.584;2023-02-04T12:45:22;103414.34;;;6.00;83.19
23016;BME280;11674;52.428;13.584;2023-02-04T12:50:29;103415.31;;;5.92;83.23
23016;BME280;11674;52.428;13.584;2023-02-04T12:55:36;103410.97;;;5.83;83.13
23016;BME280;11674;52.428;13.584;2023-02-04T13:00:43;103411.19;;;5.82;83.17
23016;BME280;11674;52.428;13.584;2023-02-04T13:05:59;103420.47;;;5.81;83.61
23016;BME280;11674;52.428;13.584;2023-02-04T13:11:07;103426.06;;;6.92;83.44
23016;BME280;11674;52.428;13.584;2023-02-04T13:16:14;103417.56;;;6.66;82.73
23016;BME280;11674;52.428;13.584;2023-02-04T13:21:21;103414.44;;;8.64;84.10
23016;BME280;11674;52.428;13.584;2023-02-04T13:26:28;103389.50;;;10.10;79.66
23016;BME280;11674;52.428;13.584;2023-02-04T13:31:35;103408.75;;;10.36;77.38
23016;BME280;11674;52.428;13.584;2023-02-04T13:36:42;103422.44;;;9.30;78.03
23016;BME280;11674;52.428;13.584;2023-02-04T13:41:49;103433.13;;;8.36;79.50
23016;BME280;11674;52.428;13.584;2023-02-04T13:46:56;103433.78;;;9.09;80.20
23016;BME280;11674;52.428;13.584;2023-02-04T13:52:03;103429.44;;;10.03;77.51
23016;BME280;11674;52.428;13.584;2023-02-04T13:57:10;103418.88;;;10.24;75.40
23016;BME280;11674;52.428;13.584;2023-02-04T14:02:17;103432.31;;;9.77;75.58
23016;BME280;11674;52.428;13.584;2023-02-04T14:07:24;103445.69;;;8.32;77.14
23016;BME280;11674;52.428;13.584;2023-02-04T14:12:31;103447.94;;;7.28;78.97
23016;BME280;11674;52.428;13.584;2023-02-04T14:17:38;103443.63;;;6.64;79.67
23016;BME280;11674;52.428;13.584;2023-02-04T14:22:48;103449.16;;;6.22;80.60
23016;BME280;11674;52.428;13.584;2023-02-04T14:27:55;103456.56;;;6.00;81.13
23016;BME280;11674;52.428;13.584;2023-02-04T14:33:02;103461.69;;;5.89;81.42
23016;BME280;11674;52.428;13.584;2023-02-04T14:38:09;103474.22;;;5.77;81.81
23016;BME280;11674;52.428;13.584;2023-02-04T14:43:16;103477.53;;;5.72;82.43
23016;BME280;11674;52.428;13.584;2023-02-04T14:48:23;103484.78;;;5.73;82.62
23016;BME280;11674;52.428;13.584;2023-02-04T14:53:30;103488.78;;;5.71;82.73
23016;BME280;11674;52.428;13.584;2023-02-04T14:58:37;103486.19;;;5.69;82.73
23016;BME280;11674;52.428;13.584;2023-02-04T15:03:44;103490.19;;;5.67;82.83
23016;BME280;11674;52.428;13.584;2023-02-04T15:08:51;103490.84;;;5.69;82.88
23016;BME280;11674;52.428;13.584;2023-02-04T15:13:58;103499.00;;;5.62;83.05
23016;BME280;11674;52.428;13.584;2023-02-04T15:19:05;103496.81;;;5.58;82.77
23016;BME280;11674;52.428;13.584;2023-02-04T15:24:12;103504.50;;;5.48;82.73
23016;BME280;11674;52.428;13.584;2023-02-04T15:29:19;103506.78;;;5.44;82.72
23016;BME280;11674;52.428;13.584;2023-02-04T15:34:26;103521.19;;;5.32;82.48
23016;BME280;11674;52.428;13.584;2023-02-04T15:39:33;103514.28;;;5.21;82.42
23016;BME280;11674;52.428;13.584;2023-02-04T15:44:47;103515.38;;;5.12;82.45
23016;BME280;11674;52.428;13.584;2023-02-04T15:50:01;103525.81;;;5.02;82.39
23016;BME280;11674;52.428;13.584;2023-02-04T15:55:08;103530.69;;;4.92;82.31
23016;BME280;11674;52.428;13.584;2023-02-04T16:00:15;103532.00;;;4.82;82.48
23016;BME280;11674;52.428;13.584;2023-02-04T16:05:22;103534.81;;;4.74;82.48
23016;BME280;11674;52.428;13.584;2023-02-04T16:10:29;103523.22;;;4.64;82.58
23016;BME280;11674;52.428;13.584;2023-02-04T16:15:36;103535.97;;;4.57;82.60
23016;BME280;11674;52.428;13.584;2023-02-04T16:20:43;103534.13;;;4.49;82.37
23016;BME280;11674;52.428;13.584;2023-02-04T16:25:50;103539.69;;;4.41;82.22
23016;BME280;11674;52.428;13.584;2023-02-04T16:30:57;103547.16;;;4.33;82.13
23016;BME280;11674;52.428;13.584;2023-02-04T16:36:07;103560.06;;;4.24;82.16
23016;BME280;11674;52.428;13.584;2023-02-04T16:41:15;103556.31;;;4.17;82.20
23016;BME280;11674;52.428;13.584;2023-02-04T16:46:29;103558.25;;;4.09;82.45
23016;BME280;11674;52.428;13.584;2023-02-04T16:51:36;103564.84;;;4.00;82.25
23016;BME280;11674;52.428;13.584;2023-02-04T16:56:43;103569.69;;;3.90;82.15
23016;BME280;11674;52.428;13.584;2023-02-04T17:01:50;103581.03;;;3.79;82.15
23016;BME280;11674;52.428;13.584;2023-02-04T17:06:57;103586.91;;;3.68;82.13
23016;BME280;11674;52.428;13.584;2023-02-04T17:12:04;103583.34;;;3.51;82.04
23016;BME280;11674;52.428;13.584;2023-02-04T17:17:11;103591.44;;;3.37;82.07
23016;BME280;11674;52.428;13.584;2023-02-04T17:22:18;103598.28;;;3.25;81.86
23016;BME280;11674;52.428;13.584;2023-02-04T17:27:25;103603.44;;;3.12;82.07
23016;BME280;11674;52.428;13.584;2023-02-04T17:32:32;103609.44;;;2.99;82.09
23016;BME280;11674;52.428;13.584;2023-02-04T17:37:39;103612.34;;;2.90;82.07
23016;BME280;11674;52.428;13.584;2023-02-04T17:42:46;103616.09;;;2.81;82.13
23016;BME280;11674;52.428;13.584;2023-02-04T17:47:53;103621.56;;;2.73;81.99
23016;BME280;11674;52.428;13.584;2023-02-04T17:53:00;103631.47;;;2.66;82.00
23016;BME280;11674;52.428;13.584;2023-02-04T18:03:24;103628.53;;;2.51;82.07
23016;BME280;11674;52.428;13.584;2023-02-04T18:08:37;103628.34;;;2.45;82.17
23016;BME280;11674;52.428;13.584;2023-02-04T18:13:45;103625.59;;;2.37;82.04
23016;BME280;11674;52.428;13.584;2023-02-04T18:18:55;103626.25;;;2.31;82.10
23016;BME280;11674;52.428;13.584;2023-02-04T18:34:59;103647.34;;;2.05;81.84
23016;BME280;11674;52.428;13.584;2023-02-04T18:45:22;103657.03;;;1.91;82.05
23016;BME280;11674;52.428;13.584;2023-02-04T18:50:32;103661.75;;;1.81;81.93
23016;BME280;11674;52.428;13.584;2023-02-04T18:55:44;103664.28;;;1.75;82.05
23016;BME280;11674;52.428;13.584;2023-02-04T19:00:57;103664.78;;;1.70;82.09
23016;BME280;11674;52.428;13.584;2023-02-04T19:06:32;103677.19;;;1.65;82.13
23016;BME280;11674;52.428;13.584;2023-02-04T19:11:46;103674.78;;;1.62;82.11
23016;BME280;11674;52.428;13.584;2023-02-04T19:16:57;103672.72;;;1.56;82.17
23016;BME280;11674;52.428;13.584;2023-02-04T19:27:34;103692.94;;;1.45;82.10
23016;BME280;11674;52.428;13.584;2023-02-04T19:32:44;103687.97;;;1.41;82.08
23016;BME280;11674;52.428;13.584;2023-02-04T19:37:56;103692.34;;;1.34;81.84
23016;BME280;11674;52.428;13.584;2023-02-04T19:43:21;103700.47;;;1.26;82.13
23016;BME280;11674;52.428;13.584;2023-02-04T19:48:34;103693.78;;;1.20;81.88
23016;BME280;11674;52.428;13.584;2023-02-04T19:53:41;103689.78;;;1.15;81.88
23016;BME280;11674;52.428;13.584;2023-02-04T19:58:48;103703.06;;;1.10;81.93
23016;BME280;11674;52.428;13.584;2023-02-04T20:03:55;103716.19;;;1.06;81.97
23016;BME280;11674;52.428;13.584;2023-02-04T20:09:18;103709.44;;;1.01;81.86
23016;BME280;11674;52.428;13.584;2023-02-04T20:14:28;103703.63;;;0.96;81.98
23016;BME280;11674;52.428;13.584;2023-02-04T20:19:41;103710.41;;;0.92;81.93
23016;BME280;11674;52.428;13.584;2023-02-04T20:24:51;103710.00;;;0.87;81.81
23016;BME280;11674;52.428;13.584;2023-02-04T20:40:28;103737.22;;;0.79;82.08
23016;BME280;11674;52.428;13.584;2023-02-04T20:45:39;103745.59;;;0.77;81.91
23016;BME280;11674;52.428;13.584;2023-02-04T20:50:54;103740.56;;;0.73;81.98
23016;BME280;11674;52.428;13.584;2023-02-04T20:56:17;103739.88;;;0.71;81.89
23016;BME280;11674;52.428;13.584;2023-02-04T21:01:31;103748.19;;;0.69;82.02
23016;BME280;11674;52.428;13.584;2023-02-04T21:06:38;103752.97;;;0.67;82.09
23016;BME280;11674;52.428;13.584;2023-02-04T21:11:45;103753.94;;;0.66;81.91
23016;BME280;11674;52.428;13.584;2023-02-04T21:16:52;103746.22;;;0.62;81.74
23016;BME280;11674;52.428;13.584;2023-02-04T21:22:00;103739.34;;;0.58;81.77
23016;BME280;11674;52.428;13.584;2023-02-04T21:27:07;103749.56;;;0.56;81.82
23016;BME280;11674;52.428;13.584;2023-02-04T21:32:14;103746.97;;;0.54;81.90
23016;BME280;11674;52.428;13.584;2023-02-04T21:37:21;103742.53;;;0.53;81.70
23016;BME280;11674;52.428;13.584;2023-02-04T21:42:28;103747.44;;;0.50;81.55
23016;BME280;11674;52.428;13.584;2023-02-04T21:47:35;103767.88;;;0.46;81.72
23016;BME280;11674;52.428;13.584;2023-02-04T21:52:43;103770.19;;;0.41;81.79
23016;BME280;11674;52.428;13.584;2023-02-04T21:57:50;103769.47;;;0.39;81.62
23016;BME280;11674;52.428;13.584;2023-02-04T22:02:57;103778.50;;;0.39;81.86
23016;BME280;11674;52.428;13.584;2023-02-04T22:08:04;103771.34;;;0.38;81.89
23016;BME280;11674;52.428;13.584;2023-02-04T22:13:11;103767.03;;;0.36;81.75
23016;BME280;11674;52.428;13.584;2023-02-04T22:18:18;103773.66;;;0.33;81.60
23016;BME280;11674;52.428;13.584;2023-02-04T22:23:25;103770.38;;;0.30;81.60
23016;BME280;11674;52.428;13.584;2023-02-04T22:28:32;103767.22;;;0.25;81.52
23016;BME280;11674;52.428;13.584;2023-02-04T22:33:39;103758.34;;;0.23;81.45
23016;BME280;11674;52.428;13.584;2023-02-04T22:38:46;103751.44;;;0.19;81.59
23016;BME280;11674;52.428;13.584;2023-02-04T22:43:53;103756.34;;;0.15;81.65
23016;BME280;11674;52.428;13.584;2023-02-04T22:49:00;103758.75;;;0.18;81.60
23016;BME280;11674;52.428;13.584;2023-02-04T22:54:10;103757.59;;;0.21;81.59
23016;BME280;11674;52.428;13.584;2023-02-04T22:59:17;103760.75;;;0.26;81.85
23016;BME280;11674;52.428;13.584;2023-02-04T23:04:24;103768.38;;;0.32;81.80
23016;BME280;11674;52.428;13.584;2023-02-04T23:09:31;103765.88;;;0.38;81.83
23016;BME280;11674;52.428;13.584;2023-02-04T23:14:39;103769.56;;;0.47;81.84
23016;BME280;11674;52.428;13.584;2023-02-04T23:19:47;103772.28;;;0.56;81.58
23016;BME280;11674;52.428;13.584;2023-02-04T23:24:54;103768.41;;;0.59;81.75
23016;BME280;11674;52.428;13.584;2023-02-04T23:30:01;103757.16;;;0.62;81.71
23016;BME280;11674;52.428;13.584;2023-02-04T23:35:08;103746.97;;;0.64;81.73
23016;BME280;11674;52.428;13.584;2023-02-04T23:40:15;103746.22;;;0.62;81.43
23016;BME280;11674;52.428;13.584;2023-02-04T23:45:22;103755.28;;;0.62;81.59
23016;BME280;11674;52.428;13.584;2023-02-04T23:50:29;103761.03;;;0.59;81.52
23016;BME280;11674;52.428;13.584;2023-02-04T23:55:36;103746.84;;;0.56;81.50
